createdAt,value
2018-03-23T00:01:51.644Z,71.10
2018-03-23T00:04:17.315Z,71.46
2018-03-23T00:06:42.965Z,71.62
2018-03-23T00:09:08.645Z,71.67
2018-03-23T00:11:34.297Z,71.81
2018-03-23T00:13:59.953Z,71.93
2018-03-23T00:16:25.621Z,72.02
2018-03-23T00:18:51.284Z,72.06
2018-03-23T00:21:16.951Z,72.04
2018-03-23T00:23:42.636Z,72.08
2018-03-23T00:26:08.280Z,71.86
2018-03-23T00:28:34.252Z,71.85
2018-03-23T00:30:59.948Z,72.03
2018-03-23T00:33:25.606Z,72.09
2018-03-23T00:35:51.251Z,71.75
2018-03-23T00:38:16.920Z,72.03
2018-03-23T00:40:42.588Z,72.12
2018-03-23T00:43:08.267Z,72.10
2018-03-23T00:45:33.923Z,72.24
2018-03-23T00:47:59.569Z,72.39
2018-03-23T00:50:25.224Z,72.33
2018-03-23T00:52:51.204Z,72.48
2018-03-23T00:55:16.855Z,72.47
2018-03-23T00:57:42.528Z,72.25
2018-03-23T01:00:08.186Z,71.85
2018-03-23T01:02:33.843Z,71.62
2018-03-23T01:04:59.517Z,71.77
2018-03-23T01:07:25.167Z,71.67
2018-03-23T01:09:50.826Z,71.66
2018-03-23T01:12:16.505Z,71.93
2018-03-23T01:14:42.176Z,70.78
2018-03-23T01:17:07.837Z,70.87
2018-03-23T01:19:33.512Z,70.74
2018-03-23T01:21:59.481Z,70.52
2018-03-23T01:24:25.145Z,70.39
2018-03-23T01:26:50.824Z,70.40
2018-03-23T01:29:16.488Z,70.44
2018-03-23T01:31:42.132Z,70.64
2018-03-23T01:34:07.811Z,70.91
2018-03-23T01:36:33.479Z,70.95
2018-03-23T01:38:59.244Z,71.45
2018-03-23T01:41:24.924Z,71.55
2018-03-23T01:43:50.585Z,71.81
2018-03-23T01:46:16.232Z,71.75
2018-03-23T01:48:41.907Z,72.13
2018-03-23T01:51:07.590Z,71.99
2018-03-23T01:53:39.400Z,72.09
2018-03-23T01:56:05.068Z,72.64
2018-03-23T01:58:31.169Z,72.86
2018-03-23T02:00:56.842Z,73.01
2018-03-23T02:03:22.508Z,73.34
2018-03-23T02:05:48.172Z,73.16
2018-03-23T02:08:13.833Z,72.98
2018-03-23T02:10:39.506Z,72.98
2018-03-23T02:13:05.172Z,72.88
2018-03-23T02:15:30.836Z,72.92
2018-03-23T02:17:56.479Z,73.19
2018-03-23T02:20:22.149Z,73.27
2018-03-23T02:22:47.808Z,73.07
2018-03-23T02:25:14.034Z,73.21
2018-03-23T02:27:39.809Z,73.65
2018-03-23T02:30:05.590Z,74.01
2018-03-23T02:32:31.345Z,74.35
2018-03-23T02:34:57.103Z,74.53
2018-03-23T02:37:22.845Z,74.93
2018-03-23T02:39:48.598Z,74.67
2018-03-23T02:42:14.368Z,74.41
2018-03-23T02:44:40.130Z,74.29
2018-03-23T02:47:05.793Z,74.32
2018-03-23T02:49:31.484Z,74.09
2018-03-23T02:51:57.156Z,74.35
2018-03-23T02:54:22.841Z,74.44
2018-03-23T02:56:49.020Z,74.31
2018-03-23T02:59:14.669Z,74.32
2018-03-23T03:01:40.348Z,74.02
2018-03-23T03:04:06.024Z,73.87
2018-03-23T03:06:31.717Z,73.87
2018-03-23T03:08:57.388Z,73.76
2018-03-23T03:11:23.067Z,73.47
2018-03-23T03:13:48.715Z,73.18
2018-03-23T03:16:15.257Z,73.20
2018-03-23T03:18:40.920Z,72.88
2018-03-23T03:21:06.582Z,72.57
2018-03-23T03:23:32.664Z,72.45
2018-03-23T03:25:58.340Z,72.43
2018-03-23T03:28:23.995Z,72.38
2018-03-23T03:30:49.682Z,72.56
2018-03-23T03:33:15.348Z,72.43
2018-03-23T03:35:41.057Z,72.69
2018-03-23T03:38:06.733Z,72.72
2018-03-23T03:40:32.666Z,72.50
2018-03-23T03:42:58.323Z,72.12
2018-03-23T03:45:23.990Z,71.76
2018-03-23T03:47:49.674Z,71.87
2018-03-23T03:50:15.334Z,71.79
2018-03-23T03:52:40.980Z,71.78
2018-03-23T03:55:06.645Z,71.40
2018-03-23T03:57:32.385Z,71.16
2018-03-23T03:59:58.511Z,71.02
2018-03-23T04:02:24.277Z,71.14
2018-03-23T04:04:49.933Z,71.11
2018-03-23T04:07:15.607Z,70.93
2018-03-23T04:09:41.261Z,70.86
2018-03-23T04:12:06.925Z,70.90
2018-03-23T04:14:32.604Z,70.92
2018-03-23T04:16:58.261Z,70.89
2018-03-23T04:19:23.911Z,70.96
2018-03-23T04:21:49.589Z,71.15
2018-03-23T04:24:15.577Z,71.30
2018-03-23T04:26:41.224Z,71.14
2018-03-23T04:29:06.885Z,71.15
2018-03-23T04:31:32.540Z,71.25
2018-03-23T04:33:58.206Z,71.25
2018-03-23T04:36:23.879Z,71.45
2018-03-23T04:38:49.536Z,71.32
2018-03-23T04:41:15.196Z,71.38
2018-03-23T04:43:40.868Z,71.49
2018-03-23T04:46:06.520Z,71.64
2018-03-23T04:48:32.160Z,71.58
2018-03-23T04:50:57.836Z,71.63
2018-03-23T04:53:23.510Z,71.51
2018-03-23T04:55:49.489Z,71.48
2018-03-23T04:58:15.155Z,71.63
2018-03-23T05:00:40.802Z,71.27
2018-03-23T05:03:06.464Z,70.90
2018-03-23T05:05:32.140Z,71.06
2018-03-23T05:07:57.804Z,71.16
2018-03-23T05:10:23.456Z,71.40
2018-03-23T05:12:49.104Z,71.50
2018-03-23T05:15:14.760Z,71.23
2018-03-23T05:17:40.442Z,71.43
2018-03-23T05:20:06.109Z,71.42
2018-03-23T05:22:31.752Z,71.57
2018-03-23T05:24:57.441Z,71.42
2018-03-23T05:27:23.496Z,71.33
2018-03-23T05:29:49.164Z,70.91
2018-03-23T05:32:14.832Z,70.64
2018-03-23T05:34:40.467Z,70.66
2018-03-23T05:37:06.124Z,71.12
2018-03-23T05:39:31.782Z,71.42
2018-03-23T05:41:57.448Z,71.26
2018-03-23T05:44:23.096Z,71.10
2018-03-23T05:46:48.751Z,71.03
2018-03-23T05:49:14.404Z,71.25
2018-03-23T05:51:40.070Z,71.35
2018-03-23T05:54:05.719Z,71.31
2018-03-23T05:56:31.679Z,71.48
2018-03-23T05:58:57.395Z,71.13
2018-03-23T06:01:23.040Z,70.97
2018-03-23T06:03:48.683Z,70.84
2018-03-23T06:06:14.382Z,70.85
2018-03-23T06:08:40.038Z,70.92
2018-03-23T06:11:05.696Z,70.79
2018-03-23T06:13:31.377Z,70.87
2018-03-23T06:15:57.024Z,70.74
2018-03-23T06:18:22.681Z,70.52
2018-03-23T06:20:48.384Z,70.03
2018-03-23T06:23:14.031Z,69.75
2018-03-23T06:25:40.096Z,69.68
2018-03-23T06:28:05.817Z,69.47
2018-03-23T06:30:31.489Z,69.16
2018-03-23T06:32:57.158Z,69.12
2018-03-23T06:35:22.845Z,69.17
2018-03-23T06:37:48.517Z,69.41
2018-03-23T06:40:14.175Z,69.09
2018-03-23T06:42:39.848Z,68.31
2018-03-23T06:45:05.512Z,68.08
2018-03-23T06:47:31.164Z,67.72
2018-03-23T06:49:56.844Z,67.75
2018-03-23T06:52:22.492Z,67.32
2018-03-23T06:54:48.574Z,67.35
2018-03-23T06:57:14.241Z,67.15
2018-03-23T06:59:39.905Z,66.99
2018-03-23T07:02:05.580Z,66.99
2018-03-23T07:04:31.252Z,67.24
2018-03-23T07:06:56.891Z,67.20
2018-03-23T07:09:22.553Z,66.82
2018-03-23T07:11:48.230Z,67.23
2018-03-23T07:14:13.876Z,67.47
2018-03-23T07:16:39.532Z,67.78
2018-03-23T07:19:05.197Z,68.07
2018-03-23T07:21:30.848Z,68.01
2018-03-23T07:23:56.499Z,67.70
2018-03-23T07:26:22.573Z,67.65
2018-03-23T07:28:48.225Z,67.10
2018-03-23T07:31:13.880Z,66.96
2018-03-23T07:33:39.540Z,67.03
2018-03-23T07:36:05.208Z,67.00
2018-03-23T07:38:30.862Z,67.00
2018-03-23T07:40:56.541Z,66.62
2018-03-23T07:43:22.489Z,65.71
2018-03-23T07:45:48.148Z,65.76
2018-03-23T07:53:41.844Z,65.21
2018-03-23T07:56:07.500Z,64.77
2018-03-23T07:58:33.168Z,64.54
2018-03-23T08:00:58.848Z,64.68
2018-03-23T08:03:25.121Z,65.06
2018-03-23T08:05:50.804Z,65.45
2018-03-23T08:08:16.496Z,65.92
2018-03-23T08:10:42.163Z,65.93
2018-03-23T08:13:07.846Z,65.60
2018-03-23T08:15:33.525Z,65.13
2018-03-23T08:17:59.205Z,64.58
2018-03-23T08:20:24.876Z,64.05
2018-03-23T08:22:50.605Z,64.20
2018-03-23T08:25:16.252Z,64.44
2018-03-23T08:27:41.899Z,63.57
2018-03-23T08:30:07.992Z,63.39
2018-03-23T08:32:33.664Z,63.91
2018-03-23T08:34:59.326Z,63.97
2018-03-23T08:37:25.001Z,64.14
2018-03-23T08:39:50.676Z,64.45
2018-03-23T08:42:16.347Z,64.62
2018-03-23T08:44:42.048Z,64.28
2018-03-23T08:47:07.721Z,64.38
2018-03-23T08:49:33.411Z,64.19
2018-03-23T08:51:59.544Z,64.01
2018-03-23T08:54:25.244Z,63.52
2018-03-23T08:56:50.953Z,63.12
2018-03-23T08:59:16.657Z,62.73
2018-03-23T09:01:42.329Z,61.88
2018-03-23T09:04:07.997Z,61.96
2018-03-23T09:06:33.661Z,61.62
2018-03-23T09:08:59.770Z,62.24
2018-03-23T09:11:25.438Z,62.25
2018-03-23T09:13:51.132Z,62.46
2018-03-23T09:16:16.789Z,62.79
2018-03-23T09:18:42.464Z,62.88
2018-03-23T09:21:08.136Z,62.32
2018-03-23T09:23:33.796Z,62.11
2018-03-23T09:25:59.492Z,62.18
2018-03-23T09:28:25.175Z,62.11
2018-03-23T09:30:51.081Z,62.20
2018-03-23T09:33:17.044Z,62.56
2018-03-23T09:35:42.708Z,62.60
2018-03-23T09:38:08.363Z,62.58
2018-03-23T09:40:34.049Z,62.02
2018-03-23T09:42:59.704Z,61.46
2018-03-23T09:45:25.353Z,61.34
2018-03-23T09:47:51.033Z,61.21
2018-03-23T09:50:16.684Z,61.44
2018-03-23T09:52:42.382Z,60.93
2018-03-23T09:55:08.069Z,60.27
2018-03-23T09:57:34.181Z,59.46
2018-03-23T09:59:59.845Z,59.03
2018-03-23T10:02:25.541Z,58.56
2018-03-23T10:04:51.209Z,58.27
2018-03-23T10:07:16.889Z,58.16
2018-03-23T10:09:42.576Z,58.40
2018-03-23T10:12:08.232Z,58.16
2018-03-23T10:14:33.889Z,57.71
2018-03-23T10:16:59.580Z,57.99
2018-03-23T10:19:25.249Z,58.46
2018-03-23T10:21:50.900Z,59.03
2018-03-23T10:24:16.978Z,59.29
2018-03-23T10:26:42.653Z,59.94
2018-03-23T10:29:08.307Z,60.06
2018-03-23T10:31:34.027Z,60.13
2018-03-23T10:33:59.712Z,59.83
2018-03-23T10:36:25.384Z,59.99
2018-03-23T10:38:51.082Z,59.99
2018-03-23T10:41:16.976Z,59.77
2018-03-23T10:43:42.650Z,59.68
2018-03-23T10:46:08.346Z,59.77
2018-03-23T10:48:34.024Z,59.91
2018-03-23T10:50:59.697Z,59.60
2018-03-23T10:53:25.458Z,59.30
2018-03-23T10:55:51.077Z,58.41
2018-03-23T10:58:16.769Z,57.71
2018-03-23T11:00:48.884Z,57.17
2018-03-23T11:03:14.564Z,56.73
2018-03-23T11:05:40.236Z,57.19
2018-03-23T11:08:05.908Z,57.04
2018-03-23T11:10:31.567Z,56.16
2018-03-23T11:12:57.228Z,56.24
2018-03-23T11:15:22.997Z,56.10
2018-03-23T11:17:48.765Z,55.20
2018-03-23T11:20:14.518Z,55.39
2018-03-23T11:22:40.293Z,55.91
2018-03-23T11:25:05.972Z,55.75
2018-03-23T11:27:31.641Z,55.84
2018-03-23T11:29:57.355Z,56.69
2018-03-23T11:32:23.480Z,57.02
2018-03-23T11:34:49.152Z,57.13
2018-03-23T11:37:14.812Z,57.86
2018-03-23T11:39:40.512Z,57.04
2018-03-23T11:42:06.180Z,55.90
2018-03-23T11:44:31.864Z,54.65
2018-03-23T11:46:57.630Z,54.08
2018-03-23T11:49:23.320Z,54.70
2018-03-23T11:51:48.996Z,54.77
2018-03-23T11:54:14.650Z,54.42
2018-03-23T11:56:40.337Z,54.26
2018-03-23T11:59:05.993Z,54.57
2018-03-23T12:01:32.052Z,54.45
2018-03-23T12:03:57.740Z,54.76
2018-03-23T12:06:23.408Z,55.09
2018-03-23T12:08:49.061Z,55.22
2018-03-23T12:11:14.728Z,55.09
2018-03-23T12:13:40.393Z,54.80
2018-03-23T12:16:06.061Z,53.98
2018-03-23T12:18:31.828Z,53.79
2018-03-23T12:20:57.477Z,53.32
2018-03-23T12:23:23.156Z,53.48
2018-03-23T12:25:48.909Z,53.13
2018-03-23T12:28:15.041Z,53.22
2018-03-23T12:30:40.715Z,53.33
2018-03-23T12:33:06.364Z,52.89
2018-03-23T12:35:32.041Z,52.83
2018-03-23T12:37:57.737Z,52.42
2018-03-23T12:40:23.400Z,53.03
2018-03-23T12:42:49.056Z,52.91
2018-03-23T12:45:14.744Z,52.61
2018-03-23T12:47:40.420Z,52.39
2018-03-23T12:50:06.129Z,52.84
2018-03-23T12:52:32.189Z,53.32
2018-03-23T12:54:57.874Z,52.98
2018-03-23T12:57:23.549Z,53.08
2018-03-23T12:59:49.236Z,52.97
2018-03-23T13:02:14.891Z,53.66
2018-03-23T13:04:40.552Z,54.37
2018-03-23T13:07:06.196Z,54.26
2018-03-23T13:09:32.044Z,54.60
2018-03-23T13:11:57.717Z,54.86
2018-03-23T13:14:23.369Z,54.76
2018-03-23T13:16:49.032Z,55.00
2018-03-23T13:19:14.705Z,55.47
2018-03-23T13:21:40.361Z,55.54
2018-03-23T13:24:06.063Z,55.75
2018-03-23T13:26:31.997Z,56.12
2018-03-23T13:28:57.649Z,55.79
2018-03-23T13:31:23.300Z,55.88
2018-03-23T13:33:48.980Z,55.86
2018-03-23T13:36:14.656Z,55.96
2018-03-23T13:38:40.313Z,56.27
2018-03-23T13:41:06.008Z,56.01
2018-03-23T13:43:31.691Z,56.00
2018-03-23T13:45:57.386Z,56.14
2018-03-23T13:48:23.045Z,56.09
2018-03-23T13:50:48.692Z,56.08
2018-03-23T13:53:14.383Z,56.23
2018-03-23T13:55:40.076Z,56.38
2018-03-23T13:58:05.764Z,56.30
2018-03-23T14:00:38.358Z,56.33
2018-03-23T14:03:04.040Z,56.21
2018-03-23T14:05:29.696Z,55.94
2018-03-23T14:07:55.356Z,56.07
2018-03-23T14:10:21.008Z,55.84
2018-03-23T14:12:46.676Z,56.33
2018-03-23T14:15:12.348Z,56.42
2018-03-23T14:17:38.068Z,56.73
2018-03-23T14:20:03.711Z,57.09
2018-03-23T14:22:29.372Z,57.28
2018-03-23T14:24:55.036Z,57.14
2018-03-23T14:27:21.382Z,57.46
2018-03-23T14:29:47.153Z,57.62
2018-03-23T14:32:12.933Z,57.61
2018-03-23T14:34:38.698Z,57.75
2018-03-23T14:37:04.361Z,57.64
2018-03-23T14:39:30.028Z,57.68
2018-03-23T14:41:55.709Z,57.40
2018-03-23T14:44:21.614Z,57.32
2018-03-23T14:46:47.384Z,57.43
2018-03-23T14:49:13.189Z,57.64
2018-03-23T14:51:38.965Z,57.90
2018-03-23T14:54:04.740Z,57.76
2018-03-23T14:56:30.514Z,57.51
2018-03-23T14:59:02.406Z,57.52
2018-03-23T15:01:28.680Z,57.53
2018-03-23T15:03:54.433Z,57.48
2018-03-23T15:06:20.208Z,57.42
2018-03-23T15:08:45.968Z,57.48
2018-03-23T15:11:11.739Z,57.60
2018-03-23T15:13:37.486Z,57.65
2018-03-23T15:16:03.291Z,57.64
2018-03-23T15:18:29.056Z,57.84
2018-03-23T15:20:54.830Z,57.75
2018-03-23T15:23:20.597Z,57.58
2018-03-23T15:25:46.378Z,57.91
2018-03-23T15:28:12.498Z,58.42
2018-03-23T15:30:38.285Z,58.41
2018-03-23T15:33:04.074Z,58.49
2018-03-23T15:35:29.842Z,58.52
2018-03-23T15:37:55.586Z,58.64
2018-03-23T15:40:21.344Z,58.60
2018-03-23T15:42:47.107Z,59.04
2018-03-23T15:45:12.849Z,58.99
2018-03-23T15:47:38.615Z,59.11
2018-03-23T15:50:04.425Z,59.26
2018-03-23T15:52:30.165Z,59.27
2018-03-23T15:54:56.401Z,59.17
2018-03-23T15:57:22.182Z,59.39
2018-03-23T15:59:47.935Z,59.30
2018-03-23T16:02:13.678Z,59.25
2018-03-23T16:04:39.436Z,59.14
2018-03-23T16:07:05.192Z,59.39
2018-03-23T16:09:30.991Z,59.64
2018-03-23T16:11:56.757Z,59.70
2018-03-23T16:14:22.493Z,59.65
2018-03-23T16:16:48.294Z,59.68
2018-03-23T16:19:14.110Z,59.68
2018-03-23T16:21:39.845Z,59.97
2018-03-23T16:24:06.018Z,59.99
2018-03-23T16:26:31.769Z,60.11
2018-03-23T16:28:57.537Z,60.31
2018-03-23T16:31:23.309Z,60.65
2018-03-23T16:33:49.113Z,60.58
2018-03-23T16:36:14.891Z,60.50
2018-03-23T16:38:40.649Z,60.64
2018-03-23T16:41:06.391Z,61.13
2018-03-23T16:43:32.158Z,61.35
2018-03-23T16:45:57.909Z,61.48
2018-03-23T16:48:23.672Z,61.55
2018-03-23T16:50:50.065Z,61.48
2018-03-23T16:53:15.844Z,61.48
2018-03-23T16:55:41.629Z,61.47
2018-03-23T16:58:07.421Z,61.70
2018-03-23T17:00:33.190Z,61.75
2018-03-23T17:02:58.953Z,61.73
2018-03-23T17:05:24.736Z,61.73
2018-03-23T17:07:50.533Z,61.92
2018-03-23T17:10:16.288Z,61.97
2018-03-23T17:12:42.075Z,62.09
2018-03-23T17:15:07.842Z,62.37
2018-03-23T17:17:33.640Z,62.27
2018-03-23T17:19:59.425Z,62.55
2018-03-23T17:22:25.614Z,62.54
2018-03-23T17:24:51.373Z,62.63
2018-03-23T17:27:17.129Z,62.84
2018-03-23T17:29:42.882Z,62.91
2018-03-23T17:32:08.642Z,63.05
2018-03-23T17:34:34.410Z,63.11
2018-03-23T17:37:00.183Z,63.04
2018-03-23T17:39:25.929Z,63.18
2018-03-23T17:41:51.697Z,63.34
2018-03-23T17:44:17.461Z,63.47
2018-03-23T17:46:43.220Z,63.57
2018-03-23T17:49:08.985Z,63.74
2018-03-23T17:51:35.383Z,63.91
2018-03-23T17:54:01.136Z,64.03
2018-03-23T17:56:26.901Z,64.22
2018-03-23T17:58:52.656Z,64.40
2018-03-23T18:01:18.421Z,64.28
2018-03-23T18:03:44.189Z,64.21
2018-03-23T18:06:09.953Z,64.22
2018-03-23T18:08:36.216Z,64.31
2018-03-23T18:11:01.982Z,64.50
2018-03-23T18:13:27.758Z,64.62
2018-03-23T18:15:53.517Z,64.75
2018-03-23T18:18:19.288Z,64.70
2018-03-23T18:20:45.056Z,64.68
2018-03-23T18:23:10.853Z,64.69
2018-03-23T18:25:36.691Z,64.80
2018-03-23T18:28:02.782Z,64.86
2018-03-23T18:30:28.579Z,64.89
2018-03-23T18:32:54.341Z,64.96
2018-03-23T18:35:20.093Z,65.05
2018-03-23T18:37:45.824Z,65.26
2018-03-23T18:40:11.584Z,65.32
2018-03-23T18:42:37.342Z,65.51
2018-03-23T18:45:03.096Z,65.65
2018-03-23T18:47:28.860Z,65.67
2018-03-23T18:49:54.619Z,65.74
2018-03-23T18:52:20.763Z,65.76
2018-03-23T18:54:46.558Z,65.88
2018-03-23T18:57:12.318Z,65.96
2018-03-23T18:59:38.060Z,66.19
2018-03-23T19:02:03.861Z,66.43
2018-03-23T19:04:29.617Z,66.66
2018-03-23T19:06:55.363Z,66.86
2018-03-23T19:09:21.122Z,66.86
2018-03-23T19:11:46.865Z,66.97
2018-03-23T19:14:12.643Z,67.12
2018-03-23T19:16:38.437Z,67.21
2018-03-23T19:19:04.201Z,67.35
2018-03-23T19:21:30.577Z,67.58
2018-03-23T19:23:56.353Z,67.73
2018-03-23T19:26:22.129Z,67.86
2018-03-23T19:28:48.011Z,67.99
2018-03-23T19:31:13.714Z,67.99
2018-03-23T19:33:39.468Z,68.16
2018-03-23T19:36:05.256Z,68.24
2018-03-23T19:38:31.017Z,68.30
2018-03-23T19:40:56.783Z,68.41
2018-03-23T19:43:22.591Z,68.49
2018-03-23T19:45:48.373Z,68.62
2018-03-23T19:48:14.127Z,68.71
2018-03-23T19:50:39.930Z,68.83
2018-03-23T19:53:06.096Z,68.85
2018-03-23T19:55:31.857Z,69.12
2018-03-23T19:57:57.629Z,69.29
2018-03-23T20:00:23.385Z,69.32
2018-03-23T20:02:49.196Z,69.42
2018-03-23T20:05:14.957Z,69.48
2018-03-23T20:07:40.737Z,69.54
2018-03-23T20:10:06.499Z,69.61
2018-03-23T20:12:32.249Z,69.61
2018-03-23T20:14:57.996Z,69.60
2018-03-23T20:17:29.987Z,69.71
2018-03-23T20:19:55.781Z,69.71
2018-03-23T20:22:21.529Z,69.53
2018-03-23T20:24:47.617Z,69.34
2018-03-23T20:27:19.404Z,69.13
2018-03-23T20:29:45.185Z,69.17
2018-03-23T20:32:17.016Z,69.17
2018-03-23T20:34:42.781Z,69.24
2018-03-23T20:37:08.553Z,69.31
2018-03-23T20:39:34.306Z,69.24
2018-03-23T20:42:00.113Z,69.04
2018-03-23T20:44:25.856Z,68.93
2018-03-23T20:46:51.605Z,68.63
2018-03-23T20:49:17.405Z,68.57
2018-03-23T20:51:43.597Z,68.57
2018-03-23T20:54:09.372Z,68.53
2018-03-23T20:56:35.142Z,68.51
2018-03-23T20:59:00.906Z,68.53
2018-03-23T21:01:26.697Z,68.59
2018-03-23T21:03:52.486Z,68.61
2018-03-23T21:06:18.227Z,68.84
2018-03-23T21:08:43.980Z,68.81
2018-03-23T21:11:09.763Z,68.82
2018-03-23T21:13:35.541Z,68.82
2018-03-23T21:16:01.299Z,68.71
2018-03-23T21:18:27.070Z,68.60
2018-03-23T21:20:52.820Z,68.51
2018-03-23T21:23:19.041Z,68.51
2018-03-23T21:25:44.801Z,68.56
2018-03-23T21:28:10.564Z,68.50
2018-03-23T21:30:36.337Z,68.54
2018-03-23T21:33:02.171Z,68.69
2018-03-23T21:35:27.933Z,68.77
2018-03-23T21:37:53.792Z,68.89
2018-03-23T21:40:19.553Z,68.78
2018-03-23T21:42:45.331Z,68.83
2018-03-23T21:45:11.093Z,68.95
2018-03-23T21:47:36.877Z,69.00
2018-03-23T21:50:02.630Z,68.98
2018-03-23T21:52:28.403Z,69.10
2018-03-23T21:54:54.488Z,68.92
2018-03-23T21:57:20.248Z,69.10
2018-03-23T21:59:45.989Z,69.21
2018-03-23T22:02:11.782Z,69.27
2018-03-23T22:04:37.542Z,69.25
2018-03-23T22:07:03.315Z,69.35
2018-03-23T22:09:29.090Z,69.43
2018-03-23T22:11:54.854Z,69.54
2018-03-23T22:14:20.621Z,69.44
2018-03-23T22:16:46.420Z,69.39
2018-03-23T22:19:12.191Z,69.48
2018-03-23T22:21:37.960Z,69.49
2018-03-23T22:24:04.094Z,69.50
2018-03-23T22:26:29.868Z,69.41
2018-03-23T22:28:55.671Z,69.42
2018-03-23T22:31:21.438Z,69.43
2018-03-23T22:33:47.196Z,69.48
2018-03-23T22:36:12.952Z,69.59
2018-03-23T22:38:38.722Z,69.59
2018-03-23T22:41:04.481Z,69.55
2018-03-23T22:43:30.253Z,69.59
2018-03-23T22:45:56.012Z,69.42
2018-03-23T22:48:21.790Z,69.39
2018-03-23T22:50:47.994Z,69.20
2018-03-23T22:53:13.761Z,69.35
2018-03-23T22:55:39.532Z,69.38
2018-03-23T22:58:05.301Z,69.33
2018-03-23T23:00:31.072Z,69.28
2018-03-23T23:02:56.833Z,69.18
2018-03-23T23:05:22.601Z,69.12
2018-03-23T23:07:48.372Z,68.97
2018-03-23T23:10:14.184Z,68.79
2018-03-23T23:12:39.930Z,68.85
2018-03-23T23:15:05.668Z,68.77
2018-03-23T23:17:31.455Z,68.70
2018-03-23T23:19:57.837Z,68.48
2018-03-23T23:22:23.621Z,68.45
2018-03-23T23:24:49.374Z,68.45
2018-03-23T23:27:15.149Z,68.45
2018-03-23T23:29:40.954Z,68.31
2018-03-23T23:32:06.727Z,68.06
2018-03-23T23:34:32.474Z,67.97
2018-03-23T23:36:58.221Z,68.01
2018-03-23T23:39:23.965Z,68.11
2018-03-23T23:41:49.726Z,68.08
2018-03-23T23:44:15.483Z,67.89
2018-03-23T23:46:41.242Z,67.88
2018-03-23T23:49:07.013Z,67.84
2018-03-23T23:51:33.146Z,67.78
2018-03-23T23:53:58.904Z,67.77
2018-03-23T23:56:24.680Z,67.79
2018-03-23T23:58:50.437Z,67.88
